sensor_id;sensor_type;location;lat;lon;timestamp;P1;durP1;ratioP1;P2;durP2;ratioP2
58972;SDS011;44750;52.040;7.472;2022-09-23T00:04:14;2.83;;;1.92;;
58972;SDS011;44750;52.040;7.472;2022-09-23T00:09:14;3.05;;;2.60;;
58972;SDS011;44750;52.040;7.472;2022-09-23T00:14:15;3.20;;;2.45;;
58972;SDS011;44750;52.040;7.472;2022-09-23T00:19:15;5.18;;;3.13;;
58972;SDS011;44750;52.040;7.472;2022-09-23T00:24:15;3.75;;;2.38;;
58972;SDS011;44750;52.040;7.472;2022-09-23T00:29:15;3.13;;;2.78;;
58972;SDS011;44750;52.040;7.472;2022-09-23T00:34:16;4.90;;;2.85;;
58972;SDS011;44750;52.040;7.472;2022-09-23T00:39:16;4.15;;;3.03;;
58972;SDS011;44750;52.040;7.472;2022-09-23T00:49:40;2.95;;;1.67;;
58972;SDS011;44750;52.040;7.472;2022-09-23T00:54:41;3.50;;;3.17;;
58972;SDS011;44750;52.040;7.472;2022-09-23T00:59:42;5.47;;;2.58;;
58972;SDS011;44750;52.040;7.472;2022-09-23T01:04:43;7.90;;;4.55;;
58972;SDS011;44750;52.040;7.472;2022-09-23T01:09:44;3.42;;;2.70;;
58972;SDS011;44750;52.040;7.472;2022-09-23T01:35:57;2.88;;;2.08;;
58972;SDS011;44750;52.040;7.472;2022-09-23T01:46:56;3.25;;;2.35;;
58972;SDS011;44750;52.040;7.472;2022-09-23T01:52:19;4.57;;;2.42;;
58972;SDS011;44750;52.040;7.472;2022-09-23T01:57:32;5.10;;;3.15;;
58972;SDS011;44750;52.040;7.472;2022-09-23T02:02:47;2.60;;;2.13;;
58972;SDS011;44750;52.040;7.472;2022-09-23T02:07:54;3.65;;;2.33;;
58972;SDS011;44750;52.040;7.472;2022-09-23T02:12:58;3.40;;;3.10;;
58972;SDS011;44750;52.040;7.472;2022-09-23T02:18:12;2.15;;;1.30;;
58972;SDS011;44750;52.040;7.472;2022-09-23T02:23:35;3.70;;;3.40;;
58972;SDS011;44750;52.040;7.472;2022-09-23T02:39:00;2.60;;;1.45;;
58972;SDS011;44750;52.040;7.472;2022-09-23T02:44:07;2.78;;;1.90;;
58972;SDS011;44750;52.040;7.472;2022-09-23T02:49:13;2.92;;;2.28;;
58972;SDS011;44750;52.040;7.472;2022-09-23T02:54:18;5.53;;;2.78;;
58972;SDS011;44750;52.040;7.472;2022-09-23T02:59:21;9.30;;;6.05;;
58972;SDS011;44750;52.040;7.472;2022-09-23T03:15:07;1.42;;;1.13;;
58972;SDS011;44750;52.040;7.472;2022-09-23T03:20:24;5.05;;;3.78;;
58972;SDS011;44750;52.040;7.472;2022-09-23T03:30:35;6.70;;;4.32;;
58972;SDS011;44750;52.040;7.472;2022-09-23T03:35:39;2.15;;;2.00;;
58972;SDS011;44750;52.040;7.472;2022-09-23T03:40:44;2.80;;;1.88;;
58972;SDS011;44750;52.040;7.472;2022-09-23T03:45:46;3.95;;;2.83;;
58972;SDS011;44750;52.040;7.472;2022-09-23T03:50:47;4.40;;;2.55;;
58972;SDS011;44750;52.040;7.472;2022-09-23T03:55:47;3.25;;;1.83;;
58972;SDS011;44750;52.040;7.472;2022-09-23T04:00:47;2.80;;;2.38;;
58972;SDS011;44750;52.040;7.472;2022-09-23T04:05:48;3.63;;;2.65;;
58972;SDS011;44750;52.040;7.472;2022-09-23T04:10:48;3.10;;;2.67;;
58972;SDS011;44750;52.040;7.472;2022-09-23T04:15:48;6.63;;;1.95;;
58972;SDS011;44750;52.040;7.472;2022-09-23T04:20:49;2.47;;;2.28;;
58972;SDS011;44750;52.040;7.472;2022-09-23T04:25:49;7.70;;;4.65;;
58972;SDS011;44750;52.040;7.472;2022-09-23T04:30:49;3.22;;;2.20;;
58972;SDS011;44750;52.040;7.472;2022-09-23T04:35:50;3.28;;;2.80;;
58972;SDS011;44750;52.040;7.472;2022-09-23T04:40:51;4.47;;;3.33;;
58972;SDS011;44750;52.040;7.472;2022-09-23T04:46:02;6.38;;;4.47;;
58972;SDS011;44750;52.040;7.472;2022-09-23T04:51:04;14.70;;;5.30;;
58972;SDS011;44750;52.040;7.472;2022-09-23T04:56:07;3.63;;;2.13;;
58972;SDS011;44750;52.040;7.472;2022-09-23T05:01:10;5.43;;;4.95;;
58972;SDS011;44750;52.040;7.472;2022-09-23T05:06:17;7.57;;;6.10;;
58972;SDS011;44750;52.040;7.472;2022-09-23T05:11:18;2.80;;;2.60;;
58972;SDS011;44750;52.040;7.472;2022-09-23T05:16:19;9.93;;;5.85;;
58972;SDS011;44750;52.040;7.472;2022-09-23T05:21:23;9.93;;;6.63;;
58972;SDS011;44750;52.040;7.472;2022-09-23T05:26:26;2.78;;;2.55;;
58972;SDS011;44750;52.040;7.472;2022-09-23T05:31:29;3.38;;;2.42;;
58972;SDS011;44750;52.040;7.472;2022-09-23T05:36:30;3.72;;;3.42;;
58972;SDS011;44750;52.040;7.472;2022-09-23T05:41:32;2.78;;;2.58;;
58972;SDS011;44750;52.040;7.472;2022-09-23T05:46:32;11.33;;;5.77;;
58972;SDS011;44750;52.040;7.472;2022-09-23T05:51:33;10.10;;;5.97;;
58972;SDS011;44750;52.040;7.472;2022-09-23T05:56:33;10.75;;;5.07;;
58972;SDS011;44750;52.040;7.472;2022-09-23T06:01:34;7.20;;;4.32;;
58972;SDS011;44750;52.040;7.472;2022-09-23T06:06:36;2.63;;;2.40;;
58972;SDS011;44750;52.040;7.472;2022-09-23T06:11:37;4.45;;;3.88;;
58972;SDS011;44750;52.040;7.472;2022-09-23T06:16:38;4.05;;;3.70;;
58972;SDS011;44750;52.040;7.472;2022-09-23T06:21:39;3.30;;;3.03;;
58972;SDS011;44750;52.040;7.472;2022-09-23T06:26:39;8.38;;;6.00;;
58972;SDS011;44750;52.040;7.472;2022-09-23T06:31:39;12.88;;;8.18;;
58972;SDS011;44750;52.040;7.472;2022-09-23T06:36:40;5.13;;;4.53;;
58972;SDS011;44750;52.040;7.472;2022-09-23T06:41:42;4.07;;;2.83;;
58972;SDS011;44750;52.040;7.472;2022-09-23T06:46:43;4.68;;;4.03;;
58972;SDS011;44750;52.040;7.472;2022-09-23T06:51:43;7.15;;;4.18;;
58972;SDS011;44750;52.040;7.472;2022-09-23T06:56:43;3.30;;;3.00;;
58972;SDS011;44750;52.040;7.472;2022-09-23T07:01:43;3.83;;;3.53;;
58972;SDS011;44750;52.040;7.472;2022-09-23T07:06:44;10.10;;;6.68;;
58972;SDS011;44750;52.040;7.472;2022-09-23T07:11:45;3.42;;;2.67;;
58972;SDS011;44750;52.040;7.472;2022-09-23T07:16:48;5.07;;;4.57;;
58972;SDS011;44750;52.040;7.472;2022-09-23T07:21:49;8.52;;;4.03;;
58972;SDS011;44750;52.040;7.472;2022-09-23T07:26:49;1.95;;;1.83;;
58972;SDS011;44750;52.040;7.472;2022-09-23T07:31:49;8.48;;;4.07;;
58972;SDS011;44750;52.040;7.472;2022-09-23T07:36:49;2.53;;;2.30;;
58972;SDS011;44750;52.040;7.472;2022-09-23T07:41:50;2.80;;;2.25;;
58972;SDS011;44750;52.040;7.472;2022-09-23T07:46:50;2.78;;;2.13;;
58972;SDS011;44750;52.040;7.472;2022-09-23T07:51:50;3.35;;;3.05;;
58972;SDS011;44750;52.040;7.472;2022-09-23T07:56:50;3.67;;;2.97;;
58972;SDS011;44750;52.040;7.472;2022-09-23T08:01:51;2.03;;;1.52;;
58972;SDS011;44750;52.040;7.472;2022-09-23T08:06:55;4.75;;;3.58;;
58972;SDS011;44750;52.040;7.472;2022-09-23T08:11:57;4.88;;;2.60;;
58972;SDS011;44750;52.040;7.472;2022-09-23T08:16:58;3.30;;;2.25;;
58972;SDS011;44750;52.040;7.472;2022-09-23T08:21:58;1.85;;;1.65;;
58972;SDS011;44750;52.040;7.472;2022-09-23T08:26:58;2.67;;;1.97;;
58972;SDS011;44750;52.040;7.472;2022-09-23T08:31:59;1.98;;;1.80;;
58972;SDS011;44750;52.040;7.472;2022-09-23T08:36:59;3.53;;;2.20;;
58972;SDS011;44750;52.040;7.472;2022-09-23T08:42:08;3.25;;;2.95;;
58972;SDS011;44750;52.040;7.472;2022-09-23T08:47:22;3.63;;;2.90;;
58972;SDS011;44750;52.040;7.472;2022-09-23T08:52:31;6.40;;;3.05;;
58972;SDS011;44750;52.040;7.472;2022-09-23T09:02:59;6.28;;;4.82;;
58972;SDS011;44750;52.040;7.472;2022-09-23T09:08:00;6.45;;;3.72;;
58972;SDS011;44750;52.040;7.472;2022-09-23T09:13:03;8.20;;;5.93;;
58972;SDS011;44750;52.040;7.472;2022-09-23T09:18:07;1.45;;;1.20;;
58972;SDS011;44750;52.040;7.472;2022-09-23T09:23:19;4.63;;;3.80;;
58972;SDS011;44750;52.040;7.472;2022-09-23T09:33:46;9.07;;;6.68;;
58972;SDS011;44750;52.040;7.472;2022-09-23T09:38:53;4.80;;;4.40;;
58972;SDS011;44750;52.040;7.472;2022-09-23T09:43:53;2.97;;;2.60;;
58972;SDS011;44750;52.040;7.472;2022-09-23T09:48:57;3.50;;;3.15;;
58972;SDS011;44750;52.040;7.472;2022-09-23T09:54:14;9.27;;;5.15;;
58972;SDS011;44750;52.040;7.472;2022-09-23T09:59:23;7.70;;;6.93;;
58972;SDS011;44750;52.040;7.472;2022-09-23T10:04:29;11.88;;;6.45;;
58972;SDS011;44750;52.040;7.472;2022-09-23T10:09:35;8.57;;;3.25;;
58972;SDS011;44750;52.040;7.472;2022-09-23T10:14:37;5.07;;;4.70;;
58972;SDS011;44750;52.040;7.472;2022-09-23T10:19:37;5.00;;;4.38;;
58972;SDS011;44750;52.040;7.472;2022-09-23T10:24:48;6.07;;;4.07;;
58972;SDS011;44750;52.040;7.472;2022-09-23T10:29:51;5.57;;;4.90;;
58972;SDS011;44750;52.040;7.472;2022-09-23T10:34:56;5.85;;;5.22;;
58972;SDS011;44750;52.040;7.472;2022-09-23T10:40:00;7.13;;;6.47;;
58972;SDS011;44750;52.040;7.472;2022-09-23T10:45:17;6.50;;;5.85;;
58972;SDS011;44750;52.040;7.472;2022-09-23T11:00:59;3.50;;;3.25;;
58972;SDS011;44750;52.040;7.472;2022-09-23T11:06:14;4.13;;;2.85;;
58972;SDS011;44750;52.040;7.472;2022-09-23T11:21:56;13.32;;;12.27;;
58972;SDS011;44750;52.040;7.472;2022-09-23T11:27:48;8.65;;;7.72;;
58972;SDS011;44750;52.040;7.472;2022-09-23T11:38:15;11.00;;;10.18;;
58972;SDS011;44750;52.040;7.472;2022-09-23T11:43:25;10.07;;;9.00;;
58972;SDS011;44750;52.040;7.472;2022-09-23T11:48:34;12.38;;;11.23;;
58972;SDS011;44750;52.040;7.472;2022-09-23T11:53:42;10.13;;;9.23;;
58972;SDS011;44750;52.040;7.472;2022-09-23T11:58:49;15.45;;;14.00;;
58972;SDS011;44750;52.040;7.472;2022-09-23T12:04:14;12.57;;;11.68;;
58972;SDS011;44750;52.040;7.472;2022-09-23T12:09:22;17.60;;;15.05;;
58972;SDS011;44750;52.040;7.472;2022-09-23T12:14:35;13.85;;;12.73;;
58972;SDS011;44750;52.040;7.472;2022-09-23T12:19:44;11.77;;;10.97;;
58972;SDS011;44750;52.040;7.472;2022-09-23T12:30:11;13.10;;;12.10;;
58972;SDS011;44750;52.040;7.472;2022-09-23T12:35:39;12.40;;;11.40;;
58972;SDS011;44750;52.040;7.472;2022-09-23T12:45:40;10.15;;;9.35;;
58972;SDS011;44750;52.040;7.472;2022-09-23T12:56:14;12.50;;;11.35;;
58972;SDS011;44750;52.040;7.472;2022-09-23T13:01:18;8.90;;;8.20;;
58972;SDS011;44750;52.040;7.472;2022-09-23T13:06:20;7.93;;;7.28;;
58972;SDS011;44750;52.040;7.472;2022-09-23T13:11:29;9.90;;;9.10;;
58972;SDS011;44750;52.040;7.472;2022-09-23T13:16:34;8.07;;;7.32;;
58972;SDS011;44750;52.040;7.472;2022-09-23T13:26:45;11.50;;;8.95;;
58972;SDS011;44750;52.040;7.472;2022-09-23T13:31:48;8.43;;;7.82;;
58972;SDS011;44750;52.040;7.472;2022-09-23T13:36:48;12.38;;;9.23;;
58972;SDS011;44750;52.040;7.472;2022-09-23T13:41:48;7.95;;;7.22;;
58972;SDS011;44750;52.040;7.472;2022-09-23T13:46:58;9.77;;;9.18;;
58972;SDS011;44750;52.040;7.472;2022-09-23T13:52:00;9.43;;;8.75;;
58972;SDS011;44750;52.040;7.472;2022-09-23T13:57:01;9.10;;;8.40;;
58972;SDS011;44750;52.040;7.472;2022-09-23T14:02:10;10.40;;;9.70;;
58972;SDS011;44750;52.040;7.472;2022-09-23T14:07:12;11.80;;;11.00;;
58972;SDS011;44750;52.040;7.472;2022-09-23T14:12:14;9.50;;;8.85;;
58972;SDS011;44750;52.040;7.472;2022-09-23T14:17:16;13.40;;;12.45;;
58972;SDS011;44750;52.040;7.472;2022-09-23T14:22:23;11.35;;;10.48;;
58972;SDS011;44750;52.040;7.472;2022-09-23T14:27:29;7.50;;;6.78;;
58972;SDS011;44750;52.040;7.472;2022-09-23T14:32:30;9.13;;;8.50;;
58972;SDS011;44750;52.040;7.472;2022-09-23T14:42:40;9.68;;;8.95;;
58972;SDS011;44750;52.040;7.472;2022-09-23T14:47:43;11.95;;;10.93;;
58972;SDS011;44750;52.040;7.472;2022-09-23T14:52:48;13.82;;;8.25;;
58972;SDS011;44750;52.040;7.472;2022-09-23T14:57:58;9.93;;;9.07;;
58972;SDS011;44750;52.040;7.472;2022-09-23T15:03:02;12.52;;;11.23;;
58972;SDS011;44750;52.040;7.472;2022-09-23T15:08:12;10.77;;;9.93;;
58972;SDS011;44750;52.040;7.472;2022-09-23T15:13:17;13.10;;;11.98;;
58972;SDS011;44750;52.040;7.472;2022-09-23T15:23:33;12.60;;;11.70;;
58972;SDS011;44750;52.040;7.472;2022-09-23T15:34:17;10.02;;;9.05;;
58972;SDS011;44750;52.040;7.472;2022-09-23T15:39:18;5.00;;;4.68;;
58972;SDS011;44750;52.040;7.472;2022-09-23T15:44:18;7.27;;;6.77;;
58972;SDS011;44750;52.040;7.472;2022-09-23T15:49:22;5.07;;;4.70;;
58972;SDS011;44750;52.040;7.472;2022-09-23T15:54:23;6.97;;;6.38;;
58972;SDS011;44750;52.040;7.472;2022-09-23T15:59:23;6.93;;;6.43;;
58972;SDS011;44750;52.040;7.472;2022-09-23T16:04:24;6.00;;;4.82;;
58972;SDS011;44750;52.040;7.472;2022-09-23T16:09:24;3.90;;;3.70;;
58972;SDS011;44750;52.040;7.472;2022-09-23T16:14:24;4.07;;;3.77;;
58972;SDS011;44750;52.040;7.472;2022-09-23T16:19:24;4.50;;;4.10;;
58972;SDS011;44750;52.040;7.472;2022-09-23T16:24:25;5.63;;;5.18;;
58972;SDS011;44750;52.040;7.472;2022-09-23T16:29:25;5.35;;;4.68;;
58972;SDS011;44750;52.040;7.472;2022-09-23T16:34:26;5.57;;;5.18;;
58972;SDS011;44750;52.040;7.472;2022-09-23T16:39:27;3.67;;;3.45;;
58972;SDS011;44750;52.040;7.472;2022-09-23T16:44:27;4.40;;;3.97;;
58972;SDS011;44750;52.040;7.472;2022-09-23T16:49:27;5.88;;;4.90;;
58972;SDS011;44750;52.040;7.472;2022-09-23T16:54:27;5.72;;;4.57;;
58972;SDS011;44750;52.040;7.472;2022-09-23T16:59:28;9.27;;;7.00;;
58972;SDS011;44750;52.040;7.472;2022-09-23T17:04:28;8.20;;;7.10;;
58972;SDS011;44750;52.040;7.472;2022-09-23T17:09:28;5.15;;;4.60;;
58972;SDS011;44750;52.040;7.472;2022-09-23T17:14:28;4.55;;;4.15;;
58972;SDS011;44750;52.040;7.472;2022-09-23T17:19:29;9.82;;;8.77;;
58972;SDS011;44750;52.040;7.472;2022-09-23T17:24:29;10.90;;;5.93;;
58972;SDS011;44750;52.040;7.472;2022-09-23T17:29:30;17.77;;;13.05;;
58972;SDS011;44750;52.040;7.472;2022-09-23T17:34:30;9.38;;;8.15;;
58972;SDS011;44750;52.040;7.472;2022-09-23T17:39:30;9.40;;;8.13;;
58972;SDS011;44750;52.040;7.472;2022-09-23T17:44:30;9.85;;;6.00;;
58972;SDS011;44750;52.040;7.472;2022-09-23T17:49:30;5.65;;;4.68;;
58972;SDS011;44750;52.040;7.472;2022-09-23T18:05:50;4.57;;;4.10;;
58972;SDS011;44750;52.040;7.472;2022-09-23T18:10:50;2.38;;;2.17;;
58972;SDS011;44750;52.040;7.472;2022-09-23T18:15:51;2.08;;;1.88;;
58972;SDS011;44750;52.040;7.472;2022-09-23T18:20:51;5.80;;;3.42;;
58972;SDS011;44750;52.040;7.472;2022-09-23T18:25:51;3.47;;;2.37;;
58972;SDS011;44750;52.040;7.472;2022-09-23T18:30:52;5.10;;;2.53;;
58972;SDS011;44750;52.040;7.472;2022-09-23T18:35:59;3.65;;;2.42;;
58972;SDS011;44750;52.040;7.472;2022-09-23T18:41:00;5.53;;;2.85;;
58972;SDS011;44750;52.040;7.472;2022-09-23T18:46:04;4.80;;;2.22;;
58972;SDS011;44750;52.040;7.472;2022-09-23T18:51:07;3.35;;;2.63;;
58972;SDS011;44750;52.040;7.472;2022-09-23T18:56:11;2.67;;;1.70;;
58972;SDS011;44750;52.040;7.472;2022-09-23T19:01:34;2.90;;;1.63;;
58972;SDS011;44750;52.040;7.472;2022-09-23T19:06:40;2.30;;;1.95;;
58972;SDS011;44750;52.040;7.472;2022-09-23T19:11:41;1.80;;;1.50;;
58972;SDS011;44750;52.040;7.472;2022-09-23T19:16:42;3.58;;;2.67;;
58972;SDS011;44750;52.040;7.472;2022-09-23T19:21:42;4.40;;;3.75;;
58972;SDS011;44750;52.040;7.472;2022-09-23T19:26:42;5.37;;;1.70;;
58972;SDS011;44750;52.040;7.472;2022-09-23T19:31:43;3.42;;;2.83;;
58972;SDS011;44750;52.040;7.472;2022-09-23T19:36:44;4.73;;;2.57;;
58972;SDS011;44750;52.040;7.472;2022-09-23T19:41:45;20.52;;;10.88;;
58972;SDS011;44750;52.040;7.472;2022-09-23T19:46:46;10.30;;;4.97;;
58972;SDS011;44750;52.040;7.472;2022-09-23T19:51:48;7.10;;;4.80;;
58972;SDS011;44750;52.040;7.472;2022-09-23T19:56:48;6.47;;;4.00;;
58972;SDS011;44750;52.040;7.472;2022-09-23T20:01:49;5.90;;;4.57;;
58972;SDS011;44750;52.040;7.472;2022-09-23T20:06:49;3.10;;;2.10;;
58972;SDS011;44750;52.040;7.472;2022-09-23T20:11:49;3.75;;;2.80;;
58972;SDS011;44750;52.040;7.472;2022-09-23T20:16:49;5.50;;;3.05;;
58972;SDS011;44750;52.040;7.472;2022-09-23T20:21:50;3.08;;;2.50;;
58972;SDS011;44750;52.040;7.472;2022-09-23T20:26:50;10.77;;;3.83;;
58972;SDS011;44750;52.040;7.472;2022-09-23T20:31:50;3.70;;;3.25;;
58972;SDS011;44750;52.040;7.472;2022-09-23T20:36:50;5.47;;;3.80;;
58972;SDS011;44750;52.040;7.472;2022-09-23T20:41:50;9.32;;;4.80;;
58972;SDS011;44750;52.040;7.472;2022-09-23T20:46:51;8.35;;;5.70;;
58972;SDS011;44750;52.040;7.472;2022-09-23T20:51:51;10.05;;;7.47;;
58972;SDS011;44750;52.040;7.472;2022-09-23T20:56:51;3.80;;;2.60;;
58972;SDS011;44750;52.040;7.472;2022-09-23T21:01:52;2.53;;;2.17;;
58972;SDS011;44750;52.040;7.472;2022-09-23T21:06:53;4.00;;;2.40;;
58972;SDS011;44750;52.040;7.472;2022-09-23T21:11:56;3.90;;;2.42;;
58972;SDS011;44750;52.040;7.472;2022-09-23T21:16:56;2.42;;;1.90;;
58972;SDS011;44750;52.040;7.472;2022-09-23T21:21:56;2.80;;;1.88;;
58972;SDS011;44750;52.040;7.472;2022-09-23T21:26:56;3.05;;;2.10;;
58972;SDS011;44750;52.040;7.472;2022-09-23T21:31:56;2.97;;;2.20;;
58972;SDS011;44750;52.040;7.472;2022-09-23T21:36:58;2.63;;;2.40;;
58972;SDS011;44750;52.040;7.472;2022-09-23T21:41:58;4.22;;;2.50;;
58972;SDS011;44750;52.040;7.472;2022-09-23T21:46:59;4.95;;;3.70;;
58972;SDS011;44750;52.040;7.472;2022-09-23T21:51:59;4.78;;;2.83;;
58972;SDS011;44750;52.040;7.472;2022-09-23T21:56:59;2.80;;;2.17;;
58972;SDS011;44750;52.040;7.472;2022-09-23T22:01:59;2.85;;;2.50;;
58972;SDS011;44750;52.040;7.472;2022-09-23T22:06:59;4.32;;;2.72;;
58972;SDS011;44750;52.040;7.472;2022-09-23T22:12:00;3.13;;;2.83;;
58972;SDS011;44750;52.040;7.472;2022-09-23T22:17:01;4.80;;;3.13;;
58972;SDS011;44750;52.040;7.472;2022-09-23T22:22:07;7.90;;;5.20;;
58972;SDS011;44750;52.040;7.472;2022-09-23T22:27:09;7.90;;;3.53;;
58972;SDS011;44750;52.040;7.472;2022-09-23T22:32:10;6.53;;;3.60;;
58972;SDS011;44750;52.040;7.472;2022-09-23T22:37:12;4.40;;;4.00;;
58972;SDS011;44750;52.040;7.472;2022-09-23T22:42:13;2.80;;;2.38;;
58972;SDS011;44750;52.040;7.472;2022-09-23T22:47:13;12.07;;;3.50;;
58972;SDS011;44750;52.040;7.472;2022-09-23T22:52:14;4.45;;;3.10;;
58972;SDS011;44750;52.040;7.472;2022-09-23T22:57:15;4.32;;;3.90;;
58972;SDS011;44750;52.040;7.472;2022-09-23T23:02:16;3.53;;;2.08;;
58972;SDS011;44750;52.040;7.472;2022-09-23T23:07:18;3.70;;;2.97;;
58972;SDS011;44750;52.040;7.472;2022-09-23T23:12:19;4.30;;;2.78;;
58972;SDS011;44750;52.040;7.472;2022-09-23T23:17:20;4.78;;;3.42;;
58972;SDS011;44750;52.040;7.472;2022-09-23T23:22:20;3.78;;;2.05;;
58972;SDS011;44750;52.040;7.472;2022-09-23T23:27:21;12.10;;;4.00;;
58972;SDS011;44750;52.040;7.472;2022-09-23T23:32:21;4.10;;;3.03;;
58972;SDS011;44750;52.040;7.472;2022-09-23T23:37:21;3.70;;;2.58;;
58972;SDS011;44750;52.040;7.472;2022-09-23T23:42:21;4.63;;;2.75;;
58972;SDS011;44750;52.040;7.472;2022-09-23T23:47:22;3.08;;;2.38;;
58972;SDS011;44750;52.040;7.472;2022-09-23T23:52:22;5.10;;;2.95;;
58972;SDS011;44750;52.040;7.472;2022-09-23T23:57:22;4.90;;;4.10;;
